createdAt,value
2017-01-14T00:00:36.269Z,4.21
2017-01-14T00:01:42.492Z,4.19
2017-01-14T00:02:48.651Z,4.22
2017-01-14T00:03:52.873Z,4.21
2017-01-14T00:04:57.075Z,4.18
2017-01-14T00:06:00.341Z,4.15
2017-01-14T00:07:06.506Z,4.18
2017-01-14T00:08:10.752Z,4.25
2017-01-14T00:09:14.972Z,4.15
2017-01-14T00:10:20.168Z,4.18
2017-01-14T00:11:24.407Z,4.16
2017-01-14T00:12:28.669Z,4.21
2017-01-14T00:13:34.905Z,4.19
2017-01-14T00:14:40.055Z,4.16
2017-01-14T00:15:46.214Z,4.19
2017-01-14T00:16:51.405Z,4.16
2017-01-14T00:17:56.675Z,4.24
2017-01-14T00:19:01.851Z,4.18
2017-01-14T00:20:08.013Z,4.14
2017-01-14T00:22:17.497Z,4.24
2017-01-14T00:23:22.638Z,4.25
2017-01-14T00:24:28.808Z,4.19
2017-01-14T00:25:35.014Z,4.22
2017-01-14T00:26:41.287Z,4.21
2017-01-14T00:27:46.443Z,4.22
2017-01-14T00:28:51.645Z,4.19
2017-01-14T00:29:56.829Z,4.21
2017-01-14T00:31:02.033Z,4.26
2017-01-14T00:32:08.192Z,4.22
2017-01-14T00:33:12.399Z,4.16
2017-01-14T00:34:18.601Z,4.26
2017-01-14T00:35:22.821Z,4.18
2017-01-14T00:36:28.014Z,4.15
2017-01-14T00:37:33.190Z,4.24
2017-01-14T00:38:38.355Z,4.19
2017-01-14T00:39:43.550Z,4.22
2017-01-14T00:40:49.717Z,4.16
2017-01-14T00:41:53.931Z,4.26
2017-01-14T00:43:00.099Z,4.26
2017-01-14T00:44:04.339Z,4.26
2017-01-14T00:45:09.594Z,4.15
2017-01-14T00:46:15.716Z,4.18
2017-01-14T00:47:20.944Z,4.18
2017-01-14T00:48:25.144Z,4.21
2017-01-14T00:49:30.346Z,4.21
2017-01-14T00:50:36.507Z,4.21
2017-01-14T00:51:41.393Z,4.21
2017-01-14T00:52:46.596Z,4.18
2017-01-14T00:53:52.773Z,4.19
2017-01-14T00:54:58.942Z,4.19
2017-01-14T00:56:04.145Z,4.21
2017-01-14T00:57:09.338Z,4.15
2017-01-14T00:58:14.529Z,4.16
2017-01-14T00:59:20.690Z,4.14
2017-01-14T01:00:25.895Z,4.18
2017-01-14T01:01:29.162Z,4.07
2017-01-14T01:02:35.385Z,4.14
2017-01-14T01:03:40.552Z,4.16
2017-01-14T01:04:46.710Z,4.21
2017-01-14T01:05:52.882Z,4.1
2017-01-14T01:06:58.085Z,4.14
2017-01-14T01:08:03.357Z,4.08
2017-01-14T01:09:09.520Z,4.08
2017-01-14T01:10:14.687Z,4.08
2017-01-14T01:11:20.846Z,4.04
2017-01-14T01:12:25.083Z,4.1
2017-01-14T01:13:29.313Z,4.07
2017-01-14T01:14:34.510Z,4.04
2017-01-14T01:15:39.701Z,4.06
2017-01-14T01:16:43.895Z,4.14
2017-01-14T01:17:50.060Z,4.06
2017-01-14T01:18:56.221Z,4.03
2017-01-14T01:20:01.414Z,4.01
2017-01-14T01:21:06.615Z,4.06
2017-01-14T01:22:12.776Z,4.12
2017-01-14T01:23:17.977Z,4.12
2017-01-14T01:24:22.249Z,4.01
2017-01-14T01:25:28.439Z,4.04
2017-01-14T01:26:34.580Z,4.12
2017-01-14T01:27:39.768Z,4.08
2017-01-14T01:28:44.966Z,4.06
2017-01-14T01:29:50.158Z,4.01
2017-01-14T01:30:56.323Z,4.08
2017-01-14T01:32:02.487Z,4.04
2017-01-14T01:33:08.656Z,4.04
2017-01-14T01:34:12.851Z,4.01
2017-01-14T01:35:19.012Z,4.03
2017-01-14T01:36:24.239Z,4.07
2017-01-14T01:37:30.412Z,4.06
2017-01-14T01:38:35.693Z,4.08
2017-01-14T01:39:41.933Z,4.06
2017-01-14T01:40:45.295Z,4.08
2017-01-14T01:41:50.775Z,4.08
2017-01-14T01:42:55.947Z,4.01
2017-01-14T01:44:00.193Z,3.94
2017-01-14T01:45:04.621Z,3.94
2017-01-14T01:46:08.854Z,4.03
2017-01-14T01:47:14.052Z,4.03
2017-01-14T01:48:20.218Z,3.98
2017-01-14T01:49:26.380Z,4.06
2017-01-14T01:50:31.648Z,3.98
2017-01-14T01:51:36.834Z,4.03
2017-01-14T01:52:41.064Z,4.1
2017-01-14T01:53:46.227Z,4.07
2017-01-14T01:54:52.396Z,4.07
2017-01-14T01:55:58.561Z,4.06
2017-01-14T01:57:03.772Z,4
2017-01-14T01:58:08.965Z,3.94
2017-01-14T01:59:15.125Z,3.94
2017-01-14T02:00:20.327Z,3.97
2017-01-14T02:01:25.561Z,4
2017-01-14T02:02:31.738Z,3.86
2017-01-14T02:03:37.035Z,3.97
2017-01-14T02:04:42.233Z,3.97
2017-01-14T02:05:47.456Z,3.89
2017-01-14T02:06:52.662Z,3.9
2017-01-14T02:07:55.934Z,3.92
2017-01-14T02:09:01.129Z,3.79
2017-01-14T02:10:07.309Z,3.85
2017-01-14T02:11:11.544Z,3.79
2017-01-14T02:12:17.707Z,3.89
2017-01-14T02:13:21.936Z,3.82
2017-01-14T02:14:26.174Z,3.78
2017-01-14T02:15:32.328Z,3.72
2017-01-14T02:16:38.498Z,3.68
2017-01-14T02:17:43.692Z,3.72
2017-01-14T02:18:48.902Z,3.68
2017-01-14T02:19:53.124Z,3.65
2017-01-14T02:20:59.418Z,3.71
2017-01-14T02:22:03.642Z,3.62
2017-01-14T02:23:07.855Z,3.61
2017-01-14T02:24:12.079Z,3.65
2017-01-14T02:25:17.251Z,3.57
2017-01-14T02:26:22.458Z,3.6
2017-01-14T02:27:28.626Z,3.53
2017-01-14T02:28:34.803Z,3.58
2017-01-14T02:29:41.080Z,3.58
2017-01-14T02:30:46.224Z,3.58
2017-01-14T02:31:52.155Z,3.49
2017-01-14T02:32:57.351Z,3.49
2017-01-14T02:34:02.549Z,3.52
2017-01-14T02:35:04.838Z,3.61
2017-01-14T02:36:10.039Z,3.54
2017-01-14T02:37:15.244Z,3.58
2017-01-14T02:38:20.446Z,3.5
2017-01-14T02:39:25.648Z,3.52
2017-01-14T02:40:30.844Z,3.49
2017-01-14T02:41:36.050Z,3.49
2017-01-14T02:42:42.229Z,3.46
2017-01-14T02:43:48.398Z,3.52
2017-01-14T02:44:54.558Z,3.62
2017-01-14T02:45:58.787Z,3.5
2017-01-14T02:47:03.019Z,3.52
2017-01-14T02:48:08.215Z,3.47
2017-01-14T02:49:14.450Z,3.47
2017-01-14T02:50:20.704Z,3.46
2017-01-14T02:51:26.494Z,3.49
2017-01-14T02:52:32.730Z,3.53
2017-01-14T02:53:39.182Z,3.47
2017-01-14T02:54:44.353Z,3.52
2017-01-14T02:55:50.552Z,3.52
2017-01-14T02:56:56.719Z,3.49
2017-01-14T02:58:01.920Z,3.47
2017-01-14T02:59:06.135Z,3.57
2017-01-14T03:00:11.365Z,3.47
2017-01-14T03:01:17.701Z,3.44
2017-01-14T03:02:23.883Z,3.47
2017-01-14T03:03:29.057Z,3.53
2017-01-14T03:04:33.261Z,3.47
2017-01-14T03:05:37.492Z,3.58
2017-01-14T03:06:42.700Z,3.49
2017-01-14T03:07:48.917Z,3.6
2017-01-14T03:08:53.139Z,3.58
2017-01-14T03:09:58.966Z,3.49
2017-01-14T03:11:03.168Z,3.57
2017-01-14T03:12:09.359Z,3.6
2017-01-14T03:13:14.571Z,3.49
2017-01-14T03:14:20.813Z,3.49
2017-01-14T03:15:26.978Z,3.47
2017-01-14T03:16:32.182Z,3.46
2017-01-14T03:17:36.379Z,3.52
2017-01-14T03:18:40.605Z,3.47
2017-01-14T03:19:46.760Z,3.47
2017-01-14T03:20:52.927Z,3.47
2017-01-14T03:21:57.124Z,3.42
2017-01-14T03:23:02.297Z,3.44
2017-01-14T03:24:07.506Z,3.33
2017-01-14T03:25:12.716Z,3.42
2017-01-14T03:26:16.910Z,3.3
2017-01-14T03:27:22.104Z,3.24
2017-01-14T03:28:28.261Z,3.31
2017-01-14T03:29:33.454Z,3.33
2017-01-14T03:30:38.653Z,3.25
2017-01-14T03:31:41.882Z,3.25
2017-01-14T03:32:48.047Z,3.3
2017-01-14T03:33:54.204Z,3.23
2017-01-14T03:34:59.414Z,3.3
2017-01-14T03:36:04.616Z,3.31
2017-01-14T03:37:10.761Z,3.33
2017-01-14T03:38:13.979Z,3.23
2017-01-14T03:39:18.210Z,3.28
2017-01-14T03:40:22.411Z,3.23
2017-01-14T03:41:27.585Z,3.09
2017-01-14T03:42:32.846Z,3.16
2017-01-14T03:43:38.969Z,3.12
2017-01-14T03:44:45.128Z,3.09
2017-01-14T03:45:50.324Z,3.09
2017-01-14T03:46:55.525Z,3.09
2017-01-14T03:48:00.725Z,3.07
2017-01-14T03:49:06.006Z,3.07
2017-01-14T03:50:11.181Z,3.05
2017-01-14T03:51:17.343Z,3.13
2017-01-14T03:52:23.511Z,3.12
2017-01-14T03:53:28.822Z,3.12
2017-01-14T03:54:35.035Z,3.15
2017-01-14T03:55:41.198Z,3.16
2017-01-14T03:56:45.491Z,3.16
2017-01-14T03:57:50.715Z,3.25
2017-01-14T03:58:55.912Z,3.27
2017-01-14T04:00:02.079Z,3.25
2017-01-14T04:01:06.333Z,3.27
2017-01-14T04:02:12.494Z,3.24
2017-01-14T04:03:18.659Z,3.24
2017-01-14T04:04:24.872Z,3.27
2017-01-14T04:05:30.076Z,3.27
2017-01-14T04:06:36.339Z,3.33
2017-01-14T04:07:40.561Z,3.36
2017-01-14T04:08:44.732Z,3.27
2017-01-14T04:09:50.906Z,3.36
2017-01-14T04:10:57.063Z,3.31
2017-01-14T04:12:03.230Z,3.31
2017-01-14T04:13:09.392Z,3.27
2017-01-14T04:14:14.696Z,3.27
2017-01-14T04:15:20.871Z,3.21
2017-01-14T04:16:26.038Z,3.21
2017-01-14T04:17:31.226Z,3.2
2017-01-14T04:18:35.457Z,3.18
2017-01-14T04:19:38.721Z,3.15
2017-01-14T04:20:43.920Z,3.15
2017-01-14T04:21:50.115Z,3.07
2017-01-14T04:22:56.248Z,3.12
2017-01-14T04:24:00.447Z,3.1
2017-01-14T04:25:05.644Z,3.1
2017-01-14T04:26:10.890Z,3.1
2017-01-14T04:27:16.089Z,3.24
2017-01-14T04:28:21.253Z,3.16
2017-01-14T04:29:27.469Z,3.1
2017-01-14T04:30:32.686Z,3.1
2017-01-14T04:31:36.997Z,3.13
2017-01-14T04:32:41.229Z,3.13
2017-01-14T04:33:46.420Z,3.07
2017-01-14T04:34:52.640Z,3.13
2017-01-14T04:35:58.809Z,3.12
2017-01-14T04:37:03.179Z,3.07
2017-01-14T04:38:07.529Z,3.03
2017-01-14T04:39:12.774Z,3.09
2017-01-14T04:40:17.927Z,3.05
2017-01-14T04:41:22.155Z,3.1
2017-01-14T04:42:27.335Z,3.06
2017-01-14T04:43:31.574Z,3.03
2017-01-14T04:44:34.921Z,2.92
2017-01-14T04:45:41.165Z,2.89
2017-01-14T04:46:46.357Z,2.88
2017-01-14T04:47:52.231Z,2.91
2017-01-14T04:48:58.390Z,2.89
2017-01-14T04:50:04.556Z,2.89
2017-01-14T04:51:10.766Z,2.89
2017-01-14T04:52:15.992Z,2.81
2017-01-14T04:53:21.191Z,2.73
2017-01-14T04:54:27.363Z,2.7
2017-01-14T04:55:33.528Z,2.73
2017-01-14T04:56:38.728Z,2.63
2017-01-14T04:57:43.922Z,2.64
2017-01-14T04:58:49.122Z,2.61
2017-01-14T04:59:54.330Z,2.64
2017-01-14T05:00:59.495Z,2.63
2017-01-14T05:02:04.658Z,2.64
2017-01-14T05:03:09.862Z,2.64
2017-01-14T05:04:16.025Z,2.63
2017-01-14T05:05:22.192Z,2.63
2017-01-14T05:06:28.355Z,2.63
2017-01-14T05:07:34.528Z,2.61
2017-01-14T05:08:39.780Z,2.69
2017-01-14T05:09:45.942Z,2.64
2017-01-14T05:10:50.171Z,2.63
2017-01-14T05:11:55.382Z,2.58
2017-01-14T05:13:01.552Z,2.56
2017-01-14T05:14:07.720Z,2.55
2017-01-14T05:15:12.992Z,2.58
2017-01-14T05:16:19.176Z,2.58
2017-01-14T05:17:22.411Z,2.59
2017-01-14T05:18:28.579Z,2.53
2017-01-14T05:19:32.808Z,2.56
2017-01-14T05:20:38.984Z,2.66
2017-01-14T05:21:45.149Z,2.63
2017-01-14T05:22:51.439Z,2.63
2017-01-14T05:23:55.639Z,2.63
2017-01-14T05:24:59.874Z,2.63
2017-01-14T05:26:04.069Z,2.66
2017-01-14T05:27:09.265Z,2.67
2017-01-14T05:28:13.476Z,2.53
2017-01-14T05:29:19.640Z,2.53
2017-01-14T05:30:23.873Z,2.56
2017-01-14T05:31:30.042Z,2.55
2017-01-14T05:32:35.240Z,2.53
2017-01-14T05:33:41.400Z,2.53
2017-01-14T05:34:46.574Z,2.48
2017-01-14T05:35:51.774Z,2.49
2017-01-14T05:36:56.975Z,2.48
2017-01-14T05:38:02.166Z,2.44
2017-01-14T05:39:08.336Z,2.45
2017-01-14T05:40:14.494Z,2.31
2017-01-14T05:41:20.659Z,2.44
2017-01-14T05:42:25.869Z,2.37
2017-01-14T05:43:31.191Z,2.44
2017-01-14T05:44:35.418Z,2.33
2017-01-14T05:45:41.588Z,2.34
2017-01-14T05:46:47.744Z,2.2
2017-01-14T05:47:52.979Z,2.27
2017-01-14T05:48:58.125Z,2.27
2017-01-14T05:50:04.304Z,2.22
2017-01-14T05:51:09.490Z,2.31
2017-01-14T05:52:15.662Z,2.34
2017-01-14T05:53:21.843Z,2.26
2017-01-14T05:54:27.099Z,2.28
2017-01-14T05:55:32.297Z,2.27
2017-01-14T05:56:37.469Z,2.3
2017-01-14T05:57:43.634Z,2.34
2017-01-14T05:58:48.826Z,2.33
2017-01-14T05:59:54.016Z,2.35
2017-01-14T06:01:00.190Z,2.37
2017-01-14T06:02:06.366Z,2.3
2017-01-14T06:03:11.564Z,2.4
2017-01-14T06:04:16.737Z,2.31
2017-01-14T06:05:22.948Z,2.34
2017-01-14T06:06:28.214Z,2.41
2017-01-14T06:07:34.377Z,2.3
2017-01-14T06:08:40.555Z,2.38
2017-01-14T06:09:46.731Z,2.45
2017-01-14T06:10:52.887Z,2.49
2017-01-14T06:11:59.141Z,2.49
2017-01-14T06:13:03.364Z,2.44
2017-01-14T06:14:08.559Z,2.4
2017-01-14T06:15:12.787Z,2.4
2017-01-14T06:16:18.016Z,2.51
2017-01-14T06:17:24.293Z,2.53
2017-01-14T06:18:30.456Z,2.51
2017-01-14T06:19:36.659Z,2.56
2017-01-14T06:20:42.860Z,2.59
2017-01-14T06:21:49.046Z,2.55
2017-01-14T06:22:54.202Z,2.51
2017-01-14T06:24:00.372Z,2.59
2017-01-14T06:25:06.537Z,2.49
2017-01-14T06:26:11.819Z,2.56
2017-01-14T06:27:17.981Z,2.4
2017-01-14T06:28:22.241Z,2.46
2017-01-14T06:29:26.463Z,2.37
2017-01-14T06:30:30.662Z,2.31
2017-01-14T06:31:35.872Z,2.28
2017-01-14T06:32:41.064Z,2.38
2017-01-14T06:33:46.259Z,2.26
2017-01-14T06:34:52.420Z,2.28
2017-01-14T06:35:57.606Z,2.27
2017-01-14T06:37:00.841Z,2.28
2017-01-14T06:38:06.047Z,2.17
2017-01-14T06:39:12.209Z,2.16
2017-01-14T06:40:16.444Z,2.15
2017-01-14T06:41:20.647Z,2.15
2017-01-14T06:42:25.853Z,2.2
2017-01-14T06:43:30.094Z,2.09
2017-01-14T06:44:36.222Z,2.1
2017-01-14T06:45:40.451Z,2.12
2017-01-14T06:46:46.616Z,2.1
2017-01-14T06:47:52.801Z,2.01
2017-01-14T06:48:58.968Z,1.99
2017-01-14T06:50:03.194Z,2.01
2017-01-14T06:51:08.404Z,2.04
2017-01-14T06:52:14.569Z,1.97
2017-01-14T06:53:20.736Z,1.93
2017-01-14T06:54:26.911Z,1.87
2017-01-14T06:55:32.123Z,1.9
2017-01-14T06:56:38.283Z,1.93
2017-01-14T06:57:42.587Z,1.87
2017-01-14T06:58:48.756Z,1.89
2017-01-14T06:59:53.002Z,1.83
2017-01-14T07:00:58.167Z,1.89
2017-01-14T07:02:03.978Z,1.79
2017-01-14T07:03:10.237Z,1.82
2017-01-14T07:04:16.357Z,1.83
2017-01-14T07:05:21.537Z,1.76
2017-01-14T07:06:26.732Z,1.76
2017-01-14T07:07:32.910Z,1.65
2017-01-14T07:08:38.111Z,1.72
2017-01-14T07:09:41.340Z,1.76
2017-01-14T07:10:47.505Z,1.71
2017-01-14T07:11:52.716Z,1.61
2017-01-14T07:12:58.887Z,1.62
2017-01-14T07:14:05.045Z,1.61
2017-01-14T07:15:09.234Z,1.64
2017-01-14T07:16:13.499Z,1.54
2017-01-14T07:17:18.700Z,1.57
2017-01-14T07:18:23.893Z,1.57
2017-01-14T07:19:29.093Z,1.64
2017-01-14T07:20:35.282Z,1.6
2017-01-14T07:21:40.480Z,1.61
2017-01-14T07:22:46.649Z,1.55
2017-01-14T07:23:50.890Z,1.55
2017-01-14T07:24:57.019Z,1.6
2017-01-14T07:26:02.220Z,1.64
2017-01-14T07:27:07.404Z,1.54
2017-01-14T07:28:11.605Z,1.57
2017-01-14T07:29:17.774Z,1.58
2017-01-14T07:30:23.930Z,1.61
2017-01-14T07:31:29.132Z,1.62
2017-01-14T07:32:34.329Z,1.68
2017-01-14T07:33:40.491Z,1.61
2017-01-14T07:34:46.676Z,1.65
2017-01-14T07:35:52.857Z,1.73
2017-01-14T07:36:59.022Z,1.55
2017-01-14T07:38:04.230Z,1.6
2017-01-14T07:39:10.390Z,1.69
2017-01-14T07:40:16.552Z,1.64
2017-01-14T07:41:21.771Z,1.69
2017-01-14T07:42:26.989Z,1.69
2017-01-14T07:43:33.196Z,1.79
2017-01-14T07:44:39.350Z,1.73
2017-01-14T07:45:44.522Z,1.76
2017-01-14T07:46:50.689Z,1.8
2017-01-14T07:47:56.850Z,1.85
2017-01-14T07:49:02.037Z,1.87
2017-01-14T07:50:07.274Z,1.9
2017-01-14T07:51:13.447Z,2.04
2017-01-14T07:52:18.651Z,2.01
2017-01-14T07:53:23.903Z,2.01
2017-01-14T07:54:28.203Z,2.08
2017-01-14T07:55:33.398Z,2.09
2017-01-14T07:56:37.666Z,2.13
2017-01-14T07:57:43.880Z,2.16
2017-01-14T07:58:47.089Z,2.13
2017-01-14T07:59:53.253Z,2.28
2017-01-14T08:00:58.444Z,2.27
2017-01-14T08:02:02.677Z,2.33
2017-01-14T08:03:07.854Z,2.45
2017-01-14T08:04:13.026Z,2.48
2017-01-14T08:05:17.253Z,2.46
2017-01-14T08:06:22.451Z,2.38
2017-01-14T08:07:28.616Z,2.4
2017-01-14T08:08:33.808Z,2.38
2017-01-14T08:09:39.009Z,2.4
2017-01-14T08:10:44.215Z,2.41
2017-01-14T08:11:50.385Z,2.44
2017-01-14T08:12:55.575Z,2.55
2017-01-14T08:13:59.801Z,2.63
2017-01-14T08:15:05.966Z,2.79
2017-01-14T08:16:11.218Z,2.88
2017-01-14T08:17:14.479Z,3.07
2017-01-14T08:18:20.663Z,3.27
2017-01-14T08:19:25.899Z,3.64
2017-01-14T08:20:31.070Z,3.8
2017-01-14T08:21:36.274Z,3.94
2017-01-14T08:22:42.462Z,4.15
2017-01-14T08:23:48.638Z,4.42
2017-01-14T08:24:54.855Z,4.61
2017-01-14T08:26:00.055Z,4.88
2017-01-14T08:27:05.264Z,5.09
2017-01-14T08:28:11.430Z,5.25
2017-01-14T08:29:17.598Z,5.41
2017-01-14T08:30:22.797Z,5.63
2017-01-14T08:31:28.979Z,5.73
2017-01-14T08:32:34.156Z,5.92
2017-01-14T08:34:42.615Z,6.3
2017-01-14T08:35:46.851Z,6.43
2017-01-14T08:36:52.050Z,6.71
2017-01-14T08:37:58.221Z,6.83
2017-01-14T08:39:02.445Z,6.98
2017-01-14T08:40:08.617Z,6.97
2017-01-14T08:41:13.820Z,7.09
2017-01-14T08:42:18.044Z,6.89
2017-01-14T08:43:22.254Z,6.86
2017-01-14T08:44:28.423Z,6.8
2017-01-14T08:45:34.587Z,6.72
2017-01-14T08:46:40.765Z,6.63
2017-01-14T08:47:45.064Z,6.43
2017-01-14T08:48:51.263Z,6.04
2017-01-14T08:49:56.438Z,5.86
2017-01-14T08:51:02.606Z,5.86
2017-01-14T08:52:07.878Z,6.21
2017-01-14T08:53:14.014Z,6.43
2017-01-14T08:54:19.232Z,6.29
2017-01-14T08:55:25.403Z,6.33
2017-01-14T08:56:29.607Z,6.28
2017-01-14T08:57:33.826Z,6.44
2017-01-14T08:58:39.110Z,6.68
2017-01-14T08:59:44.313Z,6.9
2017-01-14T09:00:48.737Z,7.22
2017-01-14T09:01:52.991Z,7.63
2017-01-14T09:02:58.148Z,7.94
2017-01-14T09:04:03.375Z,8.21
2017-01-14T09:05:09.607Z,8.39
2017-01-14T09:06:14.823Z,8.51
2017-01-14T09:07:20.985Z,8.48
2017-01-14T09:08:26.194Z,8.76
2017-01-14T09:09:31.398Z,8.55
2017-01-14T09:10:36.634Z,8.63
2017-01-14T09:11:42.779Z,8.57
2017-01-14T09:12:45.057Z,8.6
2017-01-14T09:13:51.241Z,8.72
2017-01-14T09:14:56.454Z,8.76
2017-01-14T09:16:02.626Z,8.79
2017-01-14T09:17:08.965Z,8.94
2017-01-14T09:18:15.145Z,9.24
2017-01-14T09:19:21.320Z,9.53
2017-01-14T09:20:27.490Z,9.56
2017-01-14T09:21:32.699Z,9.31
2017-01-14T09:22:35.967Z,8.73
2017-01-14T09:23:40.210Z,8.36
2017-01-14T09:24:45.378Z,8.07
2017-01-14T09:25:51.566Z,7.78
2017-01-14T09:26:57.735Z,7.47
2017-01-14T09:28:02.042Z,7.19
2017-01-14T09:29:08.210Z,6.91
2017-01-14T09:30:13.414Z,6.63
2017-01-14T09:31:17.648Z,6.36
2017-01-14T09:32:22.863Z,6.29
2017-01-14T09:33:29.050Z,6.1
2017-01-14T09:34:34.310Z,5.85
2017-01-14T09:35:40.493Z,5.83
2017-01-14T09:36:44.702Z,5.81
2017-01-14T09:37:49.903Z,5.68
2017-01-14T09:38:54.074Z,5.6
2017-01-14T09:40:00.245Z,5.6
2017-01-14T09:41:05.511Z,5.56
2017-01-14T09:42:10.692Z,5.48
2017-01-14T09:43:16.880Z,5.46
2017-01-14T09:44:22.077Z,5.43
2017-01-14T09:45:25.318Z,5.48
2017-01-14T09:46:29.940Z,5.53
2017-01-14T09:47:35.144Z,5.45
2017-01-14T09:48:40.351Z,5.3
2017-01-14T09:49:45.525Z,5.23
2017-01-14T09:50:51.762Z,5.2
2017-01-14T09:51:57.889Z,5.14
2017-01-14T09:53:03.090Z,5.16
2017-01-14T09:54:09.260Z,4.96
2017-01-14T09:55:13.497Z,5.1
2017-01-14T09:56:18.714Z,5.1
2017-01-14T09:57:22.916Z,4.98
2017-01-14T09:58:29.096Z,4.94
2017-01-14T09:59:33.935Z,4.76
2017-01-14T10:00:40.163Z,4.73
2017-01-14T10:01:46.427Z,4.59
2017-01-14T10:02:52.568Z,4.55
2017-01-14T10:03:58.766Z,4.61
2017-01-14T10:05:03.974Z,4.69
2017-01-14T10:06:10.142Z,4.55
2017-01-14T10:07:12.421Z,4.65
2017-01-14T10:08:18.592Z,4.64
2017-01-14T10:09:24.816Z,4.61
2017-01-14T10:10:31.093Z,4.58
2017-01-14T10:11:36.395Z,4.5
2017-01-14T10:12:42.575Z,4.46
2017-01-14T10:13:47.808Z,4.39
2017-01-14T10:14:51.999Z,4.36
2017-01-14T10:15:55.289Z,4.28
2017-01-14T10:17:01.415Z,4.4
2017-01-14T10:18:07.587Z,4.4
2017-01-14T10:19:13.751Z,4.5
2017-01-14T10:20:18.948Z,4.62
2017-01-14T10:21:25.128Z,4.76
2017-01-14T10:22:30.350Z,4.92
2017-01-14T10:23:33.607Z,5.22
2017-01-14T10:24:38.818Z,5.41
2017-01-14T10:25:44.020Z,5.67
2017-01-14T10:26:50.390Z,5.95
2017-01-14T10:27:56.561Z,6.1
2017-01-14T10:28:59.847Z,6.25
2017-01-14T10:30:06.038Z,6.32
2017-01-14T10:31:12.198Z,6.53
2017-01-14T10:32:16.421Z,6.66
2017-01-14T10:33:22.594Z,6.84
2017-01-14T10:34:28.767Z,6.97
2017-01-14T10:35:33.989Z,7.35
2017-01-14T10:36:40.172Z,7.6
2017-01-14T10:37:45.365Z,7.63
2017-01-14T10:38:51.579Z,7.45
2017-01-14T10:39:57.714Z,7.5
2017-01-14T10:41:00.984Z,7.6
2017-01-14T10:42:07.160Z,7.93
2017-01-14T10:43:12.334Z,7.85
2017-01-14T10:44:18.510Z,8.1
2017-01-14T10:45:22.744Z,8.08
2017-01-14T10:46:28.917Z,7.93
2017-01-14T10:47:35.102Z,7.62
2017-01-14T10:48:40.269Z,7.59
2017-01-14T10:49:46.437Z,7.58
2017-01-14T10:50:51.689Z,7.63
2017-01-14T10:51:56.863Z,7.6
2017-01-14T10:53:02.067Z,7.87
2017-01-14T10:54:07.272Z,8.08
2017-01-14T10:55:10.514Z,8.03
2017-01-14T10:56:16.679Z,8.04
2017-01-14T10:57:21.881Z,8.03
2017-01-14T10:58:28.070Z,8.02
2017-01-14T10:59:33.278Z,7.79
2017-01-14T11:00:39.449Z,7.77
2017-01-14T11:01:43.777Z,7.69
2017-01-14T11:02:50.080Z,7.77
2017-01-14T11:03:54.313Z,7.75
2017-01-14T11:05:00.542Z,7.66
2017-01-14T11:06:05.804Z,7.37
2017-01-14T11:07:10.015Z,7.16
2017-01-14T11:08:16.193Z,7.05
2017-01-14T11:09:21.429Z,6.94
2017-01-14T11:10:27.629Z,6.62
2017-01-14T11:11:33.760Z,6.29
2017-01-14T11:12:39.975Z,5.93
2017-01-14T11:13:44.239Z,5.75
2017-01-14T11:14:49.459Z,5.75
2017-01-14T11:15:54.654Z,5.78
2017-01-14T11:17:00.847Z,5.77
2017-01-14T11:18:06.021Z,5.82
2017-01-14T11:19:11.291Z,5.68
2017-01-14T11:20:17.465Z,5.64
2017-01-14T11:21:23.636Z,5.74
2017-01-14T11:22:28.807Z,5.68
2017-01-14T11:23:33.023Z,5.66
2017-01-14T11:24:37.275Z,5.56
2017-01-14T11:25:43.438Z,5.48
2017-01-14T11:26:48.613Z,5.48
2017-01-14T11:27:53.815Z,5.5
2017-01-14T11:28:59.995Z,5.49
2017-01-14T11:30:04.242Z,5.48
2017-01-14T11:31:10.614Z,5.32
2017-01-14T11:32:15.941Z,5.28
2017-01-14T11:33:20.073Z,5.31
2017-01-14T11:34:24.320Z,5.2
2017-01-14T11:35:30.610Z,5.22
2017-01-14T11:36:36.776Z,5.2
2017-01-14T11:37:43.056Z,5.28
2017-01-14T11:38:48.255Z,5.32
2017-01-14T11:39:54.425Z,5.34
2017-01-14T11:40:59.628Z,5.48
2017-01-14T11:42:04.562Z,5.46
2017-01-14T11:43:09.765Z,5.4
2017-01-14T11:44:14.003Z,5.46
2017-01-14T11:45:19.250Z,5.35
2017-01-14T11:46:25.414Z,5.23
2017-01-14T11:47:30.602Z,5.16
2017-01-14T11:48:34.803Z,5.16
2017-01-14T11:49:40.007Z,4.94
2017-01-14T11:50:46.262Z,4.94
2017-01-14T11:51:51.593Z,4.73
2017-01-14T11:52:55.784Z,4.72
2017-01-14T11:54:00.013Z,4.7
2017-01-14T11:55:05.214Z,4.62
2017-01-14T11:56:11.399Z,4.75
2017-01-14T11:57:16.596Z,4.84
2017-01-14T11:58:22.765Z,4.91
2017-01-14T11:59:27.971Z,4.96
2017-01-14T12:00:34.180Z,4.92
2017-01-14T12:01:39.338Z,4.94
2017-01-14T12:02:44.538Z,4.84
2017-01-14T12:03:50.715Z,4.7
2017-01-14T12:04:56.883Z,4.75
2017-01-14T12:06:01.123Z,4.8
2017-01-14T12:07:07.259Z,4.88
2017-01-14T12:08:12.455Z,4.92
2017-01-14T12:09:18.660Z,4.8
2017-01-14T12:10:23.835Z,4.96
2017-01-14T12:11:28.062Z,5.04
2017-01-14T12:12:33.330Z,5.13
2017-01-14T12:13:38.607Z,5.09
2017-01-14T12:14:44.317Z,5.01
2017-01-14T12:15:50.492Z,5.09
2017-01-14T12:16:56.674Z,5.02
2017-01-14T12:18:01.874Z,5.05
2017-01-14T12:19:08.074Z,5.04
2017-01-14T12:20:13.282Z,5.01
2017-01-14T12:21:17.487Z,4.95
2017-01-14T12:22:22.694Z,4.99
2017-01-14T12:23:27.900Z,5.02
2017-01-14T12:24:34.068Z,5.1
2017-01-14T12:25:40.241Z,5.01
2017-01-14T12:26:44.462Z,4.98
2017-01-14T12:27:49.670Z,5.02
2017-01-14T12:28:54.869Z,5.17
2017-01-14T12:30:01.143Z,5.16
2017-01-14T12:31:04.412Z,5.16
2017-01-14T12:32:09.615Z,5.19
2017-01-14T12:33:13.855Z,5.25
2017-01-14T12:34:19.061Z,5.23
2017-01-14T12:35:25.244Z,5.25
2017-01-14T12:36:31.405Z,5.25
2017-01-14T12:37:36.658Z,5.17
2017-01-14T12:38:40.899Z,5.49
2017-01-14T12:39:46.117Z,5.5
2017-01-14T12:40:51.318Z,5.49
2017-01-14T12:41:57.496Z,5.45
2017-01-14T12:43:03.705Z,5.43
2017-01-14T12:44:08.907Z,5.25
2017-01-14T12:45:15.068Z,5.23
2017-01-14T12:46:21.242Z,5.17
2017-01-14T12:47:26.440Z,5.23
2017-01-14T12:48:32.622Z,5.14
2017-01-14T12:49:38.793Z,5.25
2017-01-14T12:50:43.999Z,5.17
2017-01-14T12:51:49.262Z,5.22
2017-01-14T12:52:55.487Z,5.2
2017-01-14T12:53:59.723Z,5.23
2017-01-14T12:55:05.909Z,5.16
2017-01-14T12:56:12.170Z,5.19
2017-01-14T12:57:18.345Z,5.2
2017-01-14T12:58:21.693Z,5.17
2017-01-14T12:59:26.888Z,5.13
2017-01-14T13:00:32.071Z,5.12
2017-01-14T13:01:38.249Z,5.12
2017-01-14T13:02:43.452Z,5.12
2017-01-14T13:03:46.731Z,5.13
2017-01-14T13:04:52.881Z,4.99
2017-01-14T13:05:59.067Z,5.04
2017-01-14T13:07:05.241Z,5.04
2017-01-14T13:08:10.446Z,5.05
2017-01-14T13:09:16.617Z,4.98
2017-01-14T13:10:21.925Z,4.94
2017-01-14T13:11:27.107Z,4.94
2017-01-14T13:12:32.305Z,4.89
2017-01-14T13:13:38.559Z,4.79
2017-01-14T13:14:42.793Z,4.8
2017-01-14T13:15:48.966Z,4.76
2017-01-14T13:16:54.179Z,4.62
2017-01-14T13:18:00.359Z,4.79
2017-01-14T13:19:05.562Z,4.67
2017-01-14T13:20:10.761Z,4.57
2017-01-14T13:21:16.923Z,4.61
2017-01-14T13:22:22.116Z,4.64
2017-01-14T13:23:28.285Z,4.59
2017-01-14T13:24:33.496Z,4.58
2017-01-14T13:25:38.692Z,4.67
2017-01-14T13:26:42.923Z,4.79
2017-01-14T13:27:48.123Z,4.73
2017-01-14T13:28:53.322Z,4.73
2017-01-14T13:29:57.601Z,4.73
2017-01-14T13:31:01.773Z,4.79
2017-01-14T13:32:07.939Z,4.64
2017-01-14T13:33:14.195Z,4.59
2017-01-14T13:34:19.428Z,4.5
2017-01-14T13:35:24.644Z,4.42
2017-01-14T13:36:29.898Z,4.44
2017-01-14T13:37:36.103Z,4.33
2017-01-14T13:38:40.338Z,4.42
2017-01-14T13:39:46.520Z,4.4
2017-01-14T13:40:51.709Z,4.34
2017-01-14T13:41:56.880Z,4.37
2017-01-14T13:43:02.082Z,4.39
2017-01-14T13:44:07.394Z,4.37
2017-01-14T13:45:12.597Z,4.57
2017-01-14T13:46:17.891Z,4.58
2017-01-14T13:47:24.019Z,4.61
2017-01-14T13:48:30.191Z,4.52
2017-01-14T13:49:35.398Z,4.57
2017-01-14T13:50:41.566Z,4.57
2017-01-14T13:51:47.812Z,4.55
2017-01-14T13:52:53.980Z,4.55
2017-01-14T13:53:58.216Z,4.62
2017-01-14T13:55:01.456Z,4.64
2017-01-14T13:56:04.724Z,4.54
2017-01-14T13:57:11.106Z,4.61
2017-01-14T13:58:16.280Z,4.59
2017-01-14T13:59:21.532Z,4.62
2017-01-14T14:00:27.726Z,4.52
2017-01-14T14:01:32.925Z,4.55
2017-01-14T14:02:37.207Z,4.52
2017-01-14T14:03:43.425Z,4.47
2017-01-14T14:04:48.590Z,4.5
2017-01-14T14:05:52.828Z,4.43
2017-01-14T14:06:58.139Z,4.32
2017-01-14T14:08:01.507Z,4.26
2017-01-14T14:09:07.640Z,4.33
2017-01-14T14:10:12.843Z,4.34
2017-01-14T14:11:18.767Z,4.28
2017-01-14T14:12:23.006Z,4.29
2017-01-14T14:13:29.238Z,4.33
2017-01-14T14:14:34.401Z,4.44
2017-01-14T14:15:39.657Z,4.37
2017-01-14T14:16:44.836Z,4.28
2017-01-14T14:17:51.107Z,4.46
2017-01-14T14:18:55.322Z,4.5
2017-01-14T14:20:01.537Z,4.51
2017-01-14T14:21:05.893Z,4.4
2017-01-14T14:22:10.067Z,4.5
2017-01-14T14:23:16.237Z,4.42
2017-01-14T14:24:21.415Z,4.34
2017-01-14T14:25:26.715Z,4.26
2017-01-14T14:26:32.263Z,4.28
2017-01-14T14:27:38.434Z,4.25
2017-01-14T14:28:44.608Z,4.21
2017-01-14T14:29:50.770Z,4.24
2017-01-14T14:30:56.944Z,4.33
2017-01-14T14:32:03.147Z,4.22
2017-01-14T14:33:08.317Z,4.28
2017-01-14T14:34:14.490Z,4.24
2017-01-14T14:35:20.674Z,4.18